Time;durP1;ratioP1;P1;durP2;ratioP2;P2;SDS_P1;SDS_P2;PMS_P1;PMS_P2;Temp;Humidity;BMP_temperature;BMP_pressure;BME280_temperature;BME280_humidity;BME280_pressure;Samples;Min_cycle;Max_cycle;Signal;HPM_P1;HPM_P2
2021/11/17 02:26:52;;;;;;;151.80;40.42;;;;;;;1.58;100.00;99616.59;2086743;28;20218;-75
2021/11/17 02:28:16;;;;;;;147.10;42.10;;;;;;;1.57;100.00;99611.56;2085770;28;20231;-75
2021/11/17 02:29:38;;;;;;;165.93;40.28;;;;;;;1.46;100.00;99626.25;2080697;28;20245;-75
2021/11/17 02:31:10;;;;;;;124.00;42.47;;;;;;;1.42;100.00;99620.66;2080215;28;20593;-73
2021/11/17 02:32:25;;;;;;;130.73;40.97;;;;;;;1.46;100.00;99617.56;2081309;28;20225;-74
2021/11/17 02:33:47;;;;;;;121.60;40.30;;;;;;;1.44;100.00;99609.91;2079725;28;20273;-74
2021/11/17 02:35:10;;;;;;;130.40;42.72;;;;;;;1.41;100.00;99611.16;2080839;28;20780;-74
2021/11/17 02:36:30;;;;;;;110.95;39.15;;;;;;;1.42;100.00;99607.50;2078564;28;20234;-75
2021/11/17 02:37:44;;;;;;;122.57;40.42;;;;;;;1.48;100.00;99599.72;2088300;28;20583;-75
2021/11/17 02:39:13;;;;;;;156.88;42.08;;;;;;;1.46;100.00;99594.69;2085686;28;20603;-75
2021/11/17 02:40:46;;;;;;;142.18;43.10;;;;;;;1.44;100.00;99599.38;2080635;28;20696;-74
2021/11/17 02:42:01;;;;;;;162.93;41.63;;;;;;;1.41;100.00;99597.22;2086387;28;20269;-75
2021/11/17 02:43:21;;;;;;;116.28;38.53;;;;;;;1.46;100.00;99594.69;2086938;28;20218;-75
2021/11/17 02:44:46;;;;;;;140.77;40.42;;;;;;;1.44;100.00;99596.75;2086553;28;20279;-75
2021/11/17 02:45:59;;;;;;;111.53;37.90;;;;;;;1.38;100.00;99590.56;2086129;28;20222;-75
2021/11/17 02:47:17;;;;;;;113.00;40.05;;;;;;;1.52;100.00;99593.81;2079590;28;20248;-74
2021/11/17 02:48:34;;;;;;;155.15;40.17;;;;;;;1.51;100.00;99592.22;2086241;28;20219;-75
2021/11/17 02:49:48;;;;;;;143.40;38.63;;;;;;;1.46;100.00;99599.97;2086312;28;20226;-75
2021/11/17 02:51:08;;;;;;;128.32;41.58;;;;;;;1.44;100.00;99591.50;2094472;28;20317;-75
2021/11/17 02:52:33;;;;;;;161.63;40.92;;;;;;;1.37;100.00;99601.28;2094868;28;20229;-74
2021/11/17 02:53:49;;;;;;;119.43;39.72;;;;;;;1.35;100.00;99601.53;2099550;28;20701;-75
2021/11/17 02:55:04;;;;;;;118.82;40.38;;;;;;;1.40;100.00;99604.28;2100945;28;20714;-75
2021/11/17 02:56:19;;;;;;;190.68;41.58;;;;;;;1.47;100.00;99600.75;2095133;28;20217;-74
2021/11/17 02:57:41;;;;;;;136.18;41.25;;;;;;;1.46;100.00;99599.16;2095204;28;20251;-74
2021/11/17 02:58:58;;;;;;;145.10;39.67;;;;;;;1.45;100.00;99600.19;2093930;28;20217;-74
2021/11/17 03:00:27;;;;;;;147.25;39.72;;;;;;;1.41;100.00;99597.22;2094416;28;20221;-74
2021/11/17 03:01:53;;;;;;;200.52;42.30;;;;;;;1.64;100.00;99602.53;2085542;28;20218;-74
2021/11/17 03:03:22;;;;;;;145.95;38.35;;;;;;;1.61;100.00;99591.66;2086133;28;20680;-75
2021/11/17 03:04:55;;;;;;;192.77;39.55;;;;;;;1.51;100.00;99594.84;2088390;28;20231;-74
2021/11/17 03:06:23;;;;;;;176.65;39.03;;;;;;;1.44;100.00;99595.97;2085443;28;20222;-74
2021/11/17 03:07:51;;;;;;;150.68;39.22;;;;;;;1.39;100.00;99594.81;2080747;28;20222;-74
2021/11/17 03:09:33;;;;;;;119.88;37.80;;;;;;;1.32;100.00;99591.47;2081948;28;20229;-74
2021/11/17 03:11:00;;;;;;;112.05;38.17;;;;;;;1.30;100.00;99595.31;2083314;28;20226;-74
2021/11/17 03:12:20;;;;;;;120.05;40.28;;;;;;;1.32;100.00;99604.59;2088165;28;20304;-74
2021/11/17 03:13:45;;;;;;;124.10;38.28;;;;;;;1.33;100.00;99610.66;2086176;28;20234;-74
2021/11/17 03:15:00;;;;;;;96.95;37.17;;;;;;;1.30;100.00;99608.47;2087470;28;20673;-75
2021/11/17 03:16:19;;;;;;;95.45;37.33;;;;;;;1.27;100.00;99611.53;2096670;28;20562;-74
2021/11/17 03:17:49;;;;;;;114.40;38.40;;;;;;;1.25;100.00;99605.72;2088517;28;20222;-75
2021/11/17 03:19:04;;;;;;;92.90;37.70;;;;;;;1.22;100.00;99616.69;2088294;28;20231;-74
2021/11/17 03:20:26;;;;;;;108.00;36.53;;;;;;;1.20;100.00;99609.00;2087612;28;20222;-74
2021/11/17 03:21:51;;;;;;;132.90;38.63;;;;;;;1.23;100.00;99610.41;2087643;28;20607;-75
2021/11/17 03:23:05;;;;;;;139.95;38.85;;;;;;;1.17;100.00;99606.00;2089320;28;20234;-75
2021/11/17 03:24:31;;;;;;;104.03;38.47;;;;;;;1.13;100.00;99600.41;2088041;28;20221;-74
2021/11/17 03:25:44;;;;;;;137.32;39.08;;;;;;;1.12;100.00;99594.31;2088084;28;20273;-74
2021/11/17 03:27:01;;;;;;;120.90;39.08;;;;;;;1.16;100.00;99599.94;2087677;28;20222;-75
2021/11/17 03:28:19;;;;;;;106.82;38.40;;;;;;;1.21;100.00;99596.66;2088164;28;20221;-74
2021/11/17 03:29:49;;;;;;;101.28;38.38;;;;;;;1.19;100.00;99594.25;2081910;28;20226;-74
2021/11/17 03:31:08;;;;;;;95.10;36.28;;;;;;;1.17;100.00;99590.25;2091358;28;20226;-74
2021/11/17 03:32:33;;;;;;;95.60;35.35;;;;;;;1.22;100.00;99593.81;2089595;28;20689;-75
2021/11/17 03:33:47;;;;;;;116.72;36.97;;;;;;;1.16;100.00;99588.66;2088319;28;20233;-75
2021/11/17 03:35:09;;;;;;;139.10;37.33;;;;;;;1.23;100.00;99594.63;2087834;28;20268;-75
2021/11/17 03:36:41;;;;;;;137.10;37.45;;;;;;;1.31;100.00;99592.50;2083336;28;20221;-74
2021/11/17 03:38:15;;;;;;;241.52;39.65;;;;;;;1.21;100.00;99586.13;2082494;28;20237;-74
2021/11/17 03:39:37;;;;;;;113.88;35.85;;;;;;;1.12;100.00;99585.63;2087950;28;20241;-75
2021/11/17 03:40:59;;;;;;;98.78;35.63;;;;;;;1.05;100.00;99580.47;2087036;28;20227;-75
2021/11/17 03:42:19;;;;;;;131.60;37.00;;;;;;;1.28;100.00;99587.66;2087351;28;20274;-74
2021/11/17 03:43:39;;;;;;;104.03;35.08;;;;;;;1.35;100.00;99579.69;2087802;28;20227;-75
2021/11/17 03:45:14;;;;;;;90.07;36.58;;;;;;;1.25;100.00;99584.69;2089073;28;20222;-75
2021/11/17 03:46:42;;;;;;;117.68;35.60;;;;;;;1.12;100.00;99588.25;2091706;28;20256;-75
2021/11/17 03:47:58;;;;;;;162.82;36.78;;;;;;;1.07;100.00;99591.56;2092122;28;20218;-74
2021/11/17 03:49:15;;;;;;;83.18;35.38;;;;;;;1.03;100.00;99585.13;2095274;28;20585;-75
2021/11/17 03:50:33;;;;;;;97.13;35.92;;;;;;;1.01;100.00;99581.94;2088976;28;20233;-74
2021/11/17 03:51:51;;;;;;;100.15;38.92;;;;;;;1.05;100.00;99587.56;2088530;28;20229;-75
2021/11/17 03:53:06;;;;;;;130.15;38.72;;;;;;;1.02;100.00;99580.09;2089932;28;20310;-75
2021/11/17 03:54:24;;;;;;;187.15;37.10;;;;;;;0.99;100.00;99584.00;2086697;28;20226;-75
2021/11/17 03:55:41;;;;;;;117.53;36.72;;;;;;;0.97;100.00;99582.59;2081095;28;20254;-74
2021/11/17 03:56:55;;;;;;;91.57;36.95;;;;;;;0.99;100.00;99573.47;2087455;28;20230;-75
2021/11/17 03:58:09;;;;;;;164.25;38.42;;;;;;;0.97;100.00;99580.78;2088036;28;23992;-75
2021/11/17 03:59:27;;;;;;;137.40;37.00;;;;;;;0.99;100.00;99577.94;2095414;28;20221;-74
2021/11/17 04:00:52;;;;;;;148.40;37.60;;;;;;;1.07;100.00;99572.38;2093250;28;20664;-75
2021/11/17 04:02:11;;;;;;;109.07;36.60;;;;;;;1.10;100.00;99575.34;2088903;28;20230;-75
2021/11/17 04:03:31;;;;;;;96.55;35.88;;;;;;;1.08;100.00;99566.91;2087377;28;20313;-75
2021/11/17 04:04:47;;;;;;;121.65;39.15;;;;;;;1.02;100.00;99575.66;2095402;28;20233;-75
2021/11/17 04:06:00;;;;;;;133.05;38.03;;;;;;;1.03;100.00;99579.88;2087493;28;20225;-75
2021/11/17 04:07:22;;;;;;;187.02;39.65;;;;;;;1.01;100.00;99574.06;2095415;28;20218;-75
2021/11/17 04:08:37;;;;;;;161.27;39.33;;;;;;;0.99;100.00;99573.47;2097249;28;20296;-75
2021/11/17 04:09:50;;;;;;;125.18;37.80;;;;;;;0.96;100.00;99571.31;2093908;28;20229;-75
2021/11/17 04:11:17;;;;;;;146.73;37.38;;;;;;;1.04;100.00;99575.44;2088229;28;20229;-75
2021/11/17 04:12:33;;;;;;;244.48;42.85;;;;;;;1.02;100.00;99573.03;2087562;28;20227;-75
2021/11/17 04:13:44;;;;;;;197.02;38.47;;;;;;;0.95;100.00;99574.13;2080729;28;20346;-75
2021/11/17 04:14:57;;;;;;;205.27;38.08;;;;;;;0.87;100.00;99572.63;2081451;28;20224;-75
2021/11/17 04:16:14;;;;;;;336.17;43.63;;;;;;;0.79;100.00;99578.97;2087228;28;20235;-75
2021/11/17 04:17:29;;;;;;;136.32;37.60;;;;;;;0.78;100.00;99577.38;2089003;28;20221;-75
2021/11/17 04:18:44;;;;;;;188.45;39.90;;;;;;;0.74;100.00;99573.56;2087441;28;20218;-74
2021/11/17 04:19:58;;;;;;;186.48;38.53;;;;;;;0.73;100.00;99579.03;2095278;28;20229;-75
2021/11/17 04:21:17;;;;;;;167.55;36.60;;;;;;;0.71;100.00;99565.31;2095445;28;20231;-75
2021/11/17 04:22:34;;;;;;;150.45;37.40;;;;;;;0.71;100.00;99575.84;2087193;28;20222;-75
2021/11/17 04:23:49;;;;;;;115.70;38.13;;;;;;;0.77;100.00;99577.56;2087503;28;20233;-74
2021/11/17 04:25:06;;;;;;;115.07;35.95;;;;;;;0.80;100.00;99579.78;2087259;28;20695;-74
2021/11/17 04:26:36;;;;;;;109.63;34.85;;;;;;;0.76;100.00;99573.34;2087129;28;20695;-74
2021/11/17 04:27:51;;;;;;;138.70;36.60;;;;;;;0.70;100.00;99574.22;2094966;28;20259;-75
2021/11/17 04:29:11;;;;;;;164.73;36.90;;;;;;;0.74;100.00;99575.38;2095503;28;20712;-74
2021/11/17 04:30:43;;;;;;;137.00;38.03;;;;;;;0.67;100.00;99577.28;2086927;28;20274;-74
2021/11/17 04:32:17;;;;;;;129.02;38.05;;;;;;;0.66;100.00;99578.28;2082643;28;20269;-74
2021/11/17 04:33:37;;;;;;;100.05;36.22;;;;;;;0.65;100.00;99574.06;2053255;28;20231;-74
2021/11/17 04:35:12;;;;;;;160.43;36.90;;;;;;;0.63;100.00;99582.16;2080923;28;20240;-74
2021/11/17 04:36:53;;;;;;;114.15;36.05;;;;;;;0.55;100.00;99582.44;2082606;28;20231;-75
2021/11/17 04:38:15;;;;;;;145.63;36.42;;;;;;;0.60;100.00;99579.16;2055339;28;20328;-75
2021/11/17 04:39:33;;;;;;;110.95;35.60;;;;;;;0.46;100.00;99583.75;2086964;28;20672;-75
2021/11/17 04:40:57;;;;;;;105.45;33.78;;;;;;;0.56;100.00;99569.09;2087336;28;20232;-75
2021/11/17 04:42:14;;;;;;;177.52;37.50;;;;;;;0.46;100.00;99579.31;2089568;28;20219;-74
2021/11/17 04:43:34;;;;;;;157.80;38.17;;;;;;;0.45;100.00;99572.47;2087624;28;20222;-74
2021/11/17 04:44:47;;;;;;;135.60;36.00;;;;;;;0.38;100.00;99566.47;2088633;28;20226;-74
2021/11/17 04:46:05;;;;;;;168.23;38.35;;;;;;;0.40;100.00;99568.88;2080381;28;20295;-74
2021/11/17 04:47:28;;;;;;;114.68;36.75;;;;;;;0.38;100.00;99566.47;2081115;28;20306;-74
2021/11/17 04:48:45;;;;;;;253.38;40.92;;;;;;;0.26;100.00;99568.19;2088936;28;20219;-75
2021/11/17 04:50:06;;;;;;;182.13;39.95;;;;;;;0.20;100.00;99574.31;2086866;28;20693;-74
2021/11/17 04:51:22;;;;;;;164.48;36.90;;;;;;;0.17;100.00;99570.28;2088508;28;20231;-74
2021/11/17 04:52:39;;;;;;;139.85;36.78;;;;;;;0.16;100.00;99573.13;2088418;28;20279;-74
2021/11/17 04:54:04;;;;;;;207.10;38.63;;;;;;;0.12;100.00;99570.13;2095353;28;20700;-74
2021/11/17 04:55:29;;;;;;;121.50;37.83;;;;;;;0.09;100.00;99567.94;2087159;28;20760;-75
2021/11/17 04:56:46;;;;;;;200.55;39.33;;;;;;;0.10;100.00;99574.81;2089832;28;20772;-75
2021/11/17 04:58:07;;;;;;;145.60;38.80;;;;;;;0.11;100.00;99575.59;2101645;28;20237;-75
2021/11/17 04:59:24;;;;;;;257.98;40.95;;;;;;;0.25;100.00;99571.81;2095655;28;20282;-75
2021/11/17 05:00:46;;;;;;;170.55;39.90;;;;;;;0.24;100.00;99572.84;2094980;28;20332;-75
2021/11/17 05:02:22;;;;;;;170.65;41.53;;;;;;;0.17;100.00;99572.91;2095519;28;20217;-75
2021/11/17 05:03:37;;;;;;;264.13;41.22;;;;;;;0.15;100.00;99563.66;2079695;28;20222;-75
2021/11/17 05:04:55;;;;;;;274.30;44.28;;;;;;;0.17;100.00;99565.03;2080322;28;20227;-75
2021/11/17 05:06:12;;;;;;;167.88;39.05;;;;;;;0.15;100.00;99561.03;2086987;28;20226;-75
2021/11/17 05:07:26;;;;;;;179.57;39.25;;;;;;;0.16;100.00;99560.81;2087531;28;20571;-74
2021/11/17 05:08:35;;;;;;;215.63;39.80;;;;;;;0.19;100.00;99565.63;2086640;28;20227;-74
2021/11/17 05:09:48;;;;;;;196.93;40.60;;;;;;;0.20;100.00;99555.94;2087198;28;20226;-75
2021/11/17 05:11:01;;;;;;;96.20;37.03;;;;;;;0.20;100.00;99563.81;2087606;28;20234;-75
2021/11/17 05:12:18;;;;;;;139.73;38.90;;;;;;;0.20;100.00;99563.81;2088217;28;20222;-75
2021/11/17 05:13:27;;;;;;;132.80;38.95;;;;;;;0.22;100.00;99556.53;2087543;28;20312;-75
2021/11/17 05:14:37;;;;;;;132.55;39.25;;;;;;;0.22;100.00;99567.03;2094862;28;20225;-75
2021/11/17 05:15:50;;;;;;;113.90;38.70;;;;;;;0.28;100.00;99553.03;2087507;28;20239;-74
2021/11/17 05:17:08;;;;;;;133.52;38.92;;;;;;;0.38;100.00;99558.59;2096684;28;20226;-75
2021/11/17 05:18:17;;;;;;;138.13;38.00;;;;;;;0.32;100.00;99556.03;2094611;28;20700;-75
2021/11/17 05:19:31;;;;;;;114.70;37.15;;;;;;;0.40;100.00;99558.38;2088270;28;20215;-75
2021/11/17 05:20:43;;;;;;;145.80;38.67;;;;;;;0.34;100.00;99549.53;2093783;28;20225;-76
2021/11/17 05:22:00;;;;;;;132.63;37.95;;;;;;;0.23;100.00;99555.50;2086480;28;20309;-76
2021/11/17 05:23:14;;;;;;;91.85;36.58;;;;;;;0.18;100.00;99558.00;2086536;28;20225;-76
2021/11/17 05:24:32;;;;;;;104.25;36.17;;;;;;;0.13;100.00;99552.56;2094841;28;20229;-76
2021/11/17 05:25:46;;;;;;;186.10;37.60;;;;;;;0.14;100.00;99559.41;2095184;28;20719;-76
2021/11/17 05:27:00;;;;;;;147.90;37.53;;;;;;;0.10;100.00;99558.25;2087126;28;20279;-76
2021/11/17 05:28:19;;;;;;;114.13;35.90;;;;;;;0.07;100.00;99554.22;2086451;28;20225;-76
2021/11/17 05:29:37;;;;;;;126.53;35.88;;;;;;;0.03;100.00;99557.50;2080873;28;20242;-76
2021/11/17 05:30:57;;;;;;;107.90;34.60;;;;;;;0.06;100.00;99557.06;2086599;28;20236;-76
2021/11/17 05:32:18;;;;;;;164.75;37.53;;;;;;;0.01;100.00;99559.56;2087326;28;20688;-76
2021/11/17 05:33:53;;;;;;;94.88;35.65;;;;;;;0.02;100.00;99561.16;2087456;28;20582;-74
2021/11/17 05:35:23;;;;;;;103.93;34.50;;;;;;;0.09;100.00;99556.63;2066462;28;20227;-75
2021/11/17 05:36:36;;;;;;;105.30;33.45;;;;;;;-0.05;100.00;99562.00;2079361;28;20230;-75
2021/11/17 05:37:48;;;;;;;102.25;35.10;;;;;;;-0.14;100.00;99560.66;2087309;28;20235;-75
2021/11/17 05:39:10;;;;;;;88.57;33.63;;;;;;;-0.09;100.00;99560.00;2087767;28;20214;-75
2021/11/17 05:40:24;;;;;;;67.18;34.28;;;;;;;-0.10;100.00;99561.81;2088240;28;20607;-75
2021/11/17 05:41:39;;;;;;;74.47;35.25;;;;;;;-0.12;100.00;99561.25;2086650;28;20227;-76
2021/11/17 05:42:51;;;;;;;110.15;36.22;;;;;;;-0.12;100.00;99558.63;2086299;28;20234;-75
2021/11/17 05:44:17;;;;;;;106.05;35.28;;;;;;;-0.06;100.00;99563.03;2086636;28;20324;-75
2021/11/17 05:45:32;;;;;;;113.97;35.78;;;;;;;-0.12;100.00;99560.44;2087273;28;20658;-75
2021/11/17 05:46:46;;;;;;;124.13;36.60;;;;;;;-0.12;100.00;99561.25;2095583;28;20217;-75
2021/11/17 05:48:03;;;;;;;86.97;33.67;;;;;;;-0.11;100.00;99562.84;2094607;28;20248;-75
2021/11/17 05:49:16;;;;;;;96.30;34.33;;;;;;;-0.15;100.00;99561.69;2094986;28;20724;-75
2021/11/17 05:50:38;;;;;;;82.88;33.55;;;;;;;-0.17;100.00;99563.72;2095522;28;20218;-75
2021/11/17 05:52:06;;;;;;;81.88;34.38;;;;;;;-0.20;100.00;99566.75;2094243;28;20225;-74
2021/11/17 05:53:29;;;;;;;101.00;33.58;;;;;;;-0.08;100.00;99577.38;2089073;28;20234;-75
2021/11/17 05:54:46;;;;;;;109.68;35.15;;;;;;;-0.15;100.00;99566.13;2085112;28;20219;-76
2021/11/17 05:56:08;;;;;;;76.00;34.28;;;;;;;-0.14;100.00;99572.97;2080113;28;20231;-75
2021/11/17 05:57:25;;;;;;;98.65;33.55;;;;;;;-0.19;100.00;99573.59;2086026;28;20223;-75
2021/11/17 05:58:50;;;;;;;100.00;35.75;;;;;;;-0.24;100.00;99573.44;2079932;28;20227;-75
2021/11/17 06:00:09;;;;;;;109.80;34.38;;;;;;;-0.23;100.00;99569.81;2089697;28;20252;-75
2021/11/17 06:01:32;;;;;;;105.85;33.72;;;;;;;-0.34;100.00;99573.94;2096779;28;20229;-76
2021/11/17 06:02:52;;;;;;;83.60;32.67;;;;;;;-0.32;100.00;99571.09;2094736;28;20696;-75
2021/11/17 06:03:56;;;;;;;79.05;34.13;;;;;;;-0.37;100.00;99573.53;2082080;28;20682;-74
2021/11/17 06:04:58;;;;;;;77.00;34.67;;;;;;;-0.41;100.00;99572.34;2086637;28;21298;-75
2021/11/17 06:05:59;;;;;;;100.60;38.20;;;;;;;-0.40;100.00;99577.38;2087424;28;20746;-74
2021/11/17 06:07:00;;;;;;;108.07;37.70;;;;;;;-0.41;100.00;99583.66;2086456;28;20625;-75
2021/11/17 06:08:00;;;;;;;106.60;36.40;;;;;;;-0.48;100.00;99589.94;2086402;28;20735;-75
2021/11/17 06:09:02;;;;;;;139.63;36.97;;;;;;;-0.46;100.00;99593.94;2087390;28;20638;-75
2021/11/17 06:10:08;;;;;;;123.93;36.40;;;;;;;-0.37;100.00;99595.31;2086568;28;20586;-74
2021/11/17 06:11:10;;;;;;;70.80;35.15;;;;;;;-0.39;100.00;99589.47;2086383;28;20661;-75
2021/11/17 06:12:13;;;;;;;71.78;34.50;;;;;;;-0.36;100.00;99590.84;2087325;28;20218;-74
2021/11/17 06:13:17;;;;;;;68.10;35.45;;;;;;;-0.32;100.00;99590.25;2086458;28;20223;-75
2021/11/17 06:14:20;;;;;;;71.25;33.92;;;;;;;-0.19;100.00;99585.91;2078605;28;20219;-74
2021/11/17 06:15:21;;;;;;;107.53;36.67;;;;;;;-0.24;100.00;99583.94;2086456;28;20242;-74
2021/11/17 06:16:23;;;;;;;90.65;36.85;;;;;;;-0.32;100.00;99587.63;2094526;28;20689;-74
2021/11/17 06:17:26;;;;;;;60.22;33.83;;;;;;;-0.41;100.00;99596.75;2094754;28;20234;-74
2021/11/17 06:18:30;;;;;;;64.18;33.28;;;;;;;-0.42;100.00;99591.72;2094688;28;20226;-74
2021/11/17 06:19:38;;;;;;;56.33;34.33;;;;;;;-0.33;100.00;99586.00;2094759;28;20236;-75
2021/11/17 06:20:39;;;;;;;68.90;34.75;;;;;;;-0.32;100.00;99592.84;2094315;28;20225;-74
2021/11/17 06:21:42;;;;;;;71.28;34.55;;;;;;;-0.33;100.00;99603.56;2094709;28;20561;-75
2021/11/17 06:22:46;;;;;;;80.43;35.20;;;;;;;-0.37;100.00;99594.50;2094540;28;20281;-74
2021/11/17 06:23:51;;;;;;;61.88;35.00;;;;;;;-0.40;100.00;99595.72;2094738;28;20225;-75
2021/11/17 06:24:54;;;;;;;62.08;35.33;;;;;;;-0.42;100.00;99596.97;2086758;28;20697;-75
2021/11/17 06:25:56;;;;;;;73.30;35.10;;;;;;;-0.34;100.00;99596.72;2086308;28;20226;-75
2021/11/17 06:27:00;;;;;;;85.97;34.65;;;;;;;-0.38;100.00;99590.28;2086026;28;20252;-74
2021/11/17 06:28:03;;;;;;;82.57;34.50;;;;;;;-0.45;100.00;99592.13;2087209;28;20223;-75
2021/11/17 06:29:06;;;;;;;71.80;34.17;;;;;;;-0.50;100.00;99592.78;2086620;28;20300;-75
2021/11/17 06:30:10;;;;;;;73.00;34.00;;;;;;;-0.49;100.00;99590.97;2079862;28;20234;-75
2021/11/17 06:31:11;;;;;;;61.20;34.25;;;;;;;-0.53;100.00;99585.31;2078450;28;20362;-74
2021/11/17 06:32:13;;;;;;;58.25;34.53;;;;;;;-0.52;100.00;99596.59;2078082;28;20713;-74
2021/11/17 06:33:14;;;;;;;70.30;34.42;;;;;;;-0.52;100.00;99600.06;2078230;28;20219;-74
2021/11/17 06:34:24;;;;;;;89.25;35.15;;;;;;;-0.50;100.00;99591.97;2086410;28;20222;-75
2021/11/17 06:35:26;;;;;;;77.40;36.00;;;;;;;-0.46;100.00;99591.31;2087965;28;20226;-74
2021/11/17 06:36:26;;;;;;;76.82;34.67;;;;;;;-0.47;100.00;99599.41;2086108;28;20259;-75
2021/11/17 06:37:29;;;;;;;65.53;33.43;;;;;;;-0.48;100.00;99595.19;2086345;28;20301;-75
2021/11/17 06:38:30;;;;;;;90.80;34.65;;;;;;;-0.43;100.00;99593.53;2086363;28;20229;-74
2021/11/17 06:39:32;;;;;;;64.27;34.50;;;;;;;-0.43;100.00;99595.38;2087170;28;20257;-76
2021/11/17 06:40:34;;;;;;;99.15;35.60;;;;;;;-0.43;100.00;99592.75;2085918;28;20224;-75
2021/11/17 06:41:37;;;;;;;71.10;34.42;;;;;;;-0.42;100.00;99592.53;2086325;28;20232;-76
2021/11/17 06:42:40;;;;;;;63.85;34.55;;;;;;;-0.41;100.00;99594.13;2085850;28;20226;-75
2021/11/17 06:43:42;;;;;;;76.55;35.80;;;;;;;-0.41;100.00;99588.88;2086277;28;20230;-75
2021/11/17 06:44:43;;;;;;;87.18;34.60;;;;;;;-0.36;100.00;99591.66;2086302;28;20608;-76
2021/11/17 06:45:47;;;;;;;93.70;34.35;;;;;;;-0.40;100.00;99587.88;2078432;28;20235;-76
2021/11/17 06:46:48;;;;;;;88.95;34.83;;;;;;;-0.39;100.00;99589.47;2080790;28;20216;-75
2021/11/17 06:47:53;;;;;;;113.93;35.60;;;;;;;-0.41;100.00;99591.50;2085340;28;20712;-76
2021/11/17 06:48:55;;;;;;;91.65;34.78;;;;;;;-0.44;100.00;99589.28;2086374;28;20731;-76
2021/11/17 06:49:56;;;;;;;86.37;33.90;;;;;;;-0.40;100.00;99587.88;2087083;28;20610;-76
2021/11/17 06:50:58;;;;;;;94.68;34.20;;;;;;;-0.39;100.00;99596.53;2087103;28;20257;-76
2021/11/17 06:52:00;;;;;;;101.93;34.92;;;;;;;-0.39;100.00;99588.66;2086328;28;20259;-75
2021/11/17 06:53:00;;;;;;;76.13;34.42;;;;;;;-0.37;100.00;99590.06;2085910;28;20226;-75
2021/11/17 06:54:04;;;;;;;143.97;36.03;;;;;;;-0.36;100.00;99590.84;2087087;28;20297;-76
2021/11/17 06:55:08;;;;;;;107.15;36.75;;;;;;;-0.33;100.00;99590.47;2086101;28;20219;-76
2021/11/17 06:56:10;;;;;;;95.13;34.20;;;;;;;-0.34;100.00;99589.66;2078639;28;20302;-76
2021/11/17 06:57:12;;;;;;;104.68;35.90;;;;;;;-0.29;100.00;99589.00;2086245;28;20231;-76
2021/11/17 06:58:15;;;;;;;78.97;35.05;;;;;;;-0.30;100.00;99590.81;2086643;28;20276;-76
2021/11/17 06:59:16;;;;;;;102.13;36.10;;;;;;;-0.29;100.00;99592.44;2087183;28;20219;-75
2021/11/17 07:00:20;;;;;;;146.52;39.25;;;;;;;-0.25;100.00;99592.81;2086563;28;20703;-75
2021/11/17 07:01:21;;;;;;;104.93;35.45;;;;;;;-0.18;100.00;99590.94;2078598;28;20223;-75
2021/11/17 07:02:23;;;;;;;114.93;36.75;;;;;;;-0.17;100.00;99589.94;2079403;28;20223;-76
2021/11/17 07:03:26;;;;;;;72.90;34.05;;;;;;;-0.12;100.00;99590.09;2086198;28;20229;-75
2021/11/17 07:04:28;;;;;;;85.35;35.28;;;;;;;-0.12;100.00;99594.53;2087045;28;20226;-76
2021/11/17 07:05:29;;;;;;;87.13;33.85;;;;;;;-0.16;100.00;99590.75;2086919;28;20222;-76
2021/11/17 07:06:31;;;;;;;86.57;36.97;;;;;;;-0.11;100.00;99599.56;2085873;28;20245;-75
2021/11/17 07:07:31;;;;;;;106.35;36.05;;;;;;;-0.02;100.00;99593.03;2086403;28;20226;-75
2021/11/17 07:08:35;;;;;;;102.90;35.73;;;;;;;-0.04;100.00;99595.06;2087034;28;20288;-76
2021/11/17 07:09:36;;;;;;;89.05;36.20;;;;;;;-0.05;100.00;99593.47;2086561;28;20230;-75
2021/11/17 07:10:38;;;;;;;107.68;36.20;;;;;;;-0.04;100.00;99595.06;2077586;28;20223;-75
2021/11/17 07:11:39;;;;;;;104.63;36.58;;;;;;;-0.05;100.00;99593.47;2086308;28;20249;-75
2021/11/17 07:12:43;;;;;;;86.60;33.47;;;;;;;-0.04;100.00;99592.44;2087047;28;20242;-76
2021/11/17 07:13:44;;;;;;;97.63;36.35;;;;;;;0.02;100.00;99601.28;2086021;28;20210;-76
2021/11/17 07:14:48;;;;;;;133.27;36.60;;;;;;;0.03;100.00;99595.03;2086073;28;20222;-76
2021/11/17 07:15:50;;;;;;;166.73;37.03;;;;;;;0.06;100.00;99596.41;2086122;28;20223;-76
2021/11/17 07:16:52;;;;;;;86.88;36.80;;;;;;;0.11;100.00;99593.97;2077927;28;20216;-76
2021/11/17 07:17:54;;;;;;;80.93;35.35;;;;;;;0.14;100.00;99596.16;2094014;28;20263;-75
2021/11/17 07:18:56;;;;;;;117.78;36.38;;;;;;;0.17;100.00;99598.34;2094378;28;20226;-75
2021/11/17 07:19:56;;;;;;;144.80;38.53;;;;;;;0.20;100.00;99590.06;2094439;28;21707;-76
2021/11/17 07:20:58;;;;;;;117.03;37.50;;;;;;;0.20;100.00;99596.09;2095195;28;20700;-75
2021/11/17 07:22:01;;;;;;;102.53;37.67;;;;;;;0.21;100.00;99602.94;2095234;28;20221;-76
2021/11/17 07:23:03;;;;;;;77.45;36.78;;;;;;;0.19;100.00;99599.75;2094484;28;20232;-76
2021/11/17 07:24:05;;;;;;;81.65;35.72;;;;;;;0.22;100.00;99603.75;2094477;28;20223;-76
2021/11/17 07:25:08;;;;;;;82.93;35.63;;;;;;;0.21;100.00;99597.69;2094382;28;20233;-76
2021/11/17 07:26:09;;;;;;;71.03;35.25;;;;;;;0.25;100.00;99593.63;2085913;28;20230;-76
2021/11/17 07:27:18;;;;;;;60.90;33.77;;;;;;;0.25;100.00;99583.13;2094554;28;20297;-76
2021/11/17 07:28:21;;;;;;;77.30;34.88;;;;;;;0.26;100.00;99589.16;2095241;28;20222;-75
2021/11/17 07:29:22;;;;;;;81.68;34.50;;;;;;;0.27;100.00;99593.44;2093989;28;20691;-75
2021/11/17 07:30:27;;;;;;;62.60;33.15;;;;;;;0.30;100.00;99592.97;2094568;28;20222;-76
2021/11/17 07:31:28;;;;;;;66.00;34.83;;;;;;;0.30;100.00;99598.22;2095234;28;20567;-76
2021/11/17 07:32:29;;;;;;;69.35;33.85;;;;;;;0.36;100.00;99593.97;2095067;28;20222;-76
2021/11/17 07:33:31;;;;;;;69.03;35.87;;;;;;;0.35;100.00;99598.41;2095213;28;20302;-76
2021/11/17 07:34:32;;;;;;;61.45;34.63;;;;;;;0.44;100.00;99591.84;2095222;28;20226;-76
2021/11/17 07:35:35;;;;;;;74.47;34.40;;;;;;;0.43;100.00;99600.72;2094914;28;20221;-76
2021/11/17 07:36:39;;;;;;;56.95;33.72;;;;;;;0.47;100.00;99591.41;2095237;28;20229;-76
2021/11/17 07:37:42;;;;;;;70.40;35.42;;;;;;;0.54;100.00;99601.84;2094529;28;20237;-76
2021/11/17 07:38:44;;;;;;;100.82;35.65;;;;;;;0.50;100.00;99598.84;2095012;28;20224;-76
2021/11/17 07:39:44;;;;;;;91.55;37.22;;;;;;;0.53;100.00;99606.31;2095125;28;20230;-75
2021/11/17 07:40:47;;;;;;;67.77;35.37;;;;;;;0.60;100.00;99597.53;2094250;28;20252;-76
2021/11/17 07:41:50;;;;;;;79.50;34.40;;;;;;;0.75;100.00;99603.25;2094467;28;20214;-76
2021/11/17 07:42:55;;;;;;;87.65;34.08;;;;;;;0.75;100.00;99603.25;2095112;28;20237;-76
2021/11/17 07:43:57;;;;;;;70.20;34.50;;;;;;;0.77;100.00;99604.63;2094868;28;20595;-75
2021/11/17 07:44:59;;;;;;;53.65;34.47;;;;;;;0.78;100.00;99600.16;2095131;28;20218;-75
2021/11/17 07:46:00;;;;;;;61.17;34.83;;;;;;;0.80;100.00;99600.78;2094334;28;20233;-76
2021/11/17 07:47:02;;;;;;;58.63;34.93;;;;;;;0.81;100.00;99605.81;2085648;28;20685;-76
2021/11/17 07:48:04;;;;;;;54.05;34.95;;;;;;;0.83;100.00;99602.97;2094325;28;20226;-75
2021/11/17 07:49:06;;;;;;;62.58;35.03;;;;;;;0.87;100.00;99596.25;2094444;28;20252;-76
2021/11/17 07:50:09;;;;;;;70.82;35.10;;;;;;;0.86;100.00;99602.50;2087459;28;20214;-76
2021/11/17 07:51:12;;;;;;;65.18;34.47;;;;;;;0.88;100.00;99603.13;2086084;28;20226;-75
2021/11/17 07:52:14;;;;;;;76.88;34.00;;;;;;;0.91;100.00;99604.50;2086113;28;20268;-76
2021/11/17 07:53:16;;;;;;;71.18;34.10;;;;;;;0.88;100.00;99597.06;2077718;28;20234;-75
2021/11/17 07:54:19;;;;;;;66.72;35.22;;;;;;;0.86;100.00;99605.13;2086214;28;20218;-75
2021/11/17 07:55:20;;;;;;;67.40;36.80;;;;;;;0.87;100.00;99593.63;2086727;28;20258;-76
2021/11/17 07:56:22;;;;;;;71.07;34.55;;;;;;;0.92;100.00;99599.00;2085940;28;20219;-76
2021/11/17 07:57:27;;;;;;;75.63;33.42;;;;;;;1.01;100.00;99596.91;2087619;28;20226;-76